Rechercher aéroport 
image banner adimage banner adimage banner ad
image banner ad

0Q3 - Sonoma Valley

Situé à Schellville/Sonoma, United States

ICAO - 0Q3, IATA -

Données fournies par Airmate  

Information générale

Coordonnées: N38°13'26" W122°26'59"
Élévation : 16 feet MSL.
Variation magnétique : 16° East
Voir autres Aéroports à California

Données opérationnelles

Special qualification required
Heure actuelle UTC:
Heure actuelle locale:
Météo à : KDVO - Gnoss Field ( 13 km )
METAR: KDVO 180815Z AUTO 22004KT 10SM OVC013 14/11 A3002 RMK AO2
Voir NOTAMs / SUP AIP / TFR affectant cet aéroport [VIEW]
Fréquences de communication: [VIEW]

Pistes:

Identifiant RWYQFULongueur (ft)Largeur (ft)SurfaceLDA (ft)
07270045ASPH
25270045ASPH
17151350ASPH
35151350ASPH

Coordonnées de l'aéroport

Adresse: Schellville/Sonoma United States

Vue satellite de 0Q3